Time;durP1;ratioP1;P1;durP2;ratioP2;P2;SDS_P1;SDS_P2;PMS_P1;PMS_P2;Temp;Humidity;BMP_temperature;BMP_pressure;BME280_temperature;BME280_humidity;BME280_pressure;Samples;Min_cycle;Max_cycle;Signal;HPM_P1;HPM_P2
2022/12/07 00:01:41;;;;;;;21.67;11.02;;;3.30;99.90;;;1.72;100.00;100716.44;4986681;28;20025;-78
2022/12/07 00:04:11;;;;;;;29.10;12.25;;;3.30;99.90;;;1.74;100.00;100720.72;5006450;28;20029;-78
2022/12/07 00:06:44;;;;;;;26.10;13.02;;;3.30;99.90;;;1.76;100.00;100715.53;5004316;28;20501;-79
2022/12/07 00:09:14;;;;;;;24.80;12.40;;;3.30;99.90;;;1.74;100.00;100710.34;5019346;28;20025;-78
2022/12/07 00:11:44;;;;;;;25.02;11.77;;;3.30;99.90;;;1.75;100.00;100713.81;5005923;28;20104;-77
2022/12/07 00:14:14;;;;;;;24.52;12.00;;;3.40;99.90;;;1.77;100.00;100712.94;5004749;28;20041;-78
2022/12/07 00:16:40;;;;;;;26.35;12.52;;;3.40;99.90;;;1.77;100.00;100712.06;4992479;28;20075;-78
2022/12/07 00:19:06;;;;;;;29.77;12.85;;;3.40;99.90;;;1.77;100.00;100702.53;5004743;28;20022;-78
2022/12/07 00:21:41;;;;;;;26.00;12.93;;;3.30;99.90;;;1.79;100.00;100705.09;5002416;28;20045;-79
2022/12/07 00:24:07;;;;;;;24.17;13.18;;;3.40;99.90;;;1.77;100.00;100701.66;5007133;28;20073;-79
2022/12/07 00:26:45;;;;;;;27.83;13.18;;;3.30;99.90;;;1.70;100.00;100693.09;5004499;28;20822;-79
2022/12/07 00:29:24;;;;;;;25.08;12.48;;;3.30;99.90;;;1.62;100.00;100687.09;4988034;28;20441;-79
2022/12/07 00:31:50;;;;;;;23.75;12.48;;;3.30;99.90;;;1.63;100.00;100683.66;5018186;28;20037;-78
2022/12/07 00:34:25;;;;;;;23.10;12.90;;;3.30;99.90;;;1.63;100.00;100683.66;5005986;28;20617;-79
2022/12/07 00:36:51;;;;;;;19.90;12.32;;;3.20;99.90;;;1.59;100.00;100679.38;5008192;28;20708;-79
2022/12/07 00:39:17;;;;;;;20.20;11.75;;;3.20;99.90;;;1.56;100.00;100676.81;5007671;28;20053;-79
2022/12/07 00:41:43;;;;;;;22.98;12.15;;;3.20;99.90;;;1.54;100.00;100678.56;5004567;28;20026;-79
2022/12/07 00:44:09;;;;;;;24.27;12.18;;;3.20;99.90;;;1.53;100.00;100671.63;5004072;28;20053;-79
2022/12/07 00:49:11;;;;;;;22.75;12.00;;;3.10;99.90;;;1.44;100.00;100678.63;5039180;28;20065;-84
2022/12/07 00:51:38;;;;;;;24.33;12.90;;;3.10;99.90;;;1.44;100.00;100673.44;5033700;28;20037;-83
2022/12/07 00:54:11;;;;;;;22.88;11.80;;;3.10;99.90;;;1.45;100.00;100671.72;5033194;28;20056;-83
2022/12/07 00:56:37;;;;;;;26.48;12.55;;;3.00;99.90;;;1.42;100.00;100669.16;5017614;28;20065;-84
2022/12/07 00:59:04;;;;;;;23.17;12.20;;;3.00;99.90;;;1.42;100.00;100661.38;5016510;28;20036;-85
2022/12/07 01:01:37;;;;;;;22.83;12.25;;;3.00;99.90;;;1.44;100.00;100663.06;5018168;28;20423;-81
2022/12/07 01:04:03;;;;;;;26.60;12.68;;;3.10;99.90;;;1.46;100.00;100654.41;5018961;28;20087;-84
2022/12/07 01:06:30;;;;;;;18.08;11.38;;;3.00;99.90;;;1.43;100.00;100650.97;5032532;28;20036;-84
2022/12/07 01:08:56;;;;;;;21.00;12.10;;;3.00;99.90;;;1.42;100.00;100648.41;5001318;28;20026;-86
2022/12/07 01:11:28;;;;;;;22.35;11.80;;;3.10;99.90;;;1.41;100.00;100647.53;5029460;28;20040;-83
2022/12/07 01:13:56;;;;;;;23.02;11.32;;;3.10;99.90;;;1.39;100.00;100641.50;4999883;28;20045;-85
2022/12/07 01:16:25;;;;;;;21.17;12.27;;;3.00;99.90;;;1.35;100.00;100638.97;5033325;28;20030;-86
2022/12/07 01:18:57;;;;;;;27.02;12.77;;;3.00;99.90;;;1.38;100.00;100638.91;5002694;28;20025;-84
2022/12/07 01:21:26;;;;;;;22.70;12.38;;;3.00;99.90;;;1.34;100.00;100635.53;5000040;28;20037;-85
2022/12/07 01:23:53;;;;;;;28.35;12.77;;;3.00;99.90;;;1.31;100.00;100634.69;4995355;28;20037;-85
2022/12/07 01:26:24;;;;;;;21.27;11.68;;;2.90;99.90;;;1.25;100.00;100634.72;5019513;28;20030;-82
2022/12/07 01:28:51;;;;;;;21.90;11.63;;;2.90;99.90;;;1.20;100.00;100632.19;5034448;28;20056;-83
2022/12/07 01:31:23;;;;;;;24.05;11.55;;;2.80;99.90;;;1.14;100.00;100627.06;5001204;28;20052;-84
2022/12/07 01:33:55;;;;;;;23.05;11.23;;;2.80;99.90;;;1.11;100.00;100634.88;4998816;28;20037;-85
2022/12/07 01:36:30;;;;;;;21.35;11.63;;;2.70;99.90;;;1.09;100.00;100632.28;5029856;28;20109;-83
2022/12/07 01:39:00;;;;;;;22.60;12.02;;;2.70;99.90;;;1.09;100.00;100621.91;5032678;28;20053;-85
2022/12/07 01:41:39;;;;;;;22.42;11.02;;;2.70;99.90;;;1.11;100.00;100619.31;5034175;28;20068;-84
2022/12/07 01:44:26;;;;;;;20.00;11.48;;;2.70;99.90;;;1.12;100.00;100610.66;5034407;28;20071;-82
2022/12/07 01:46:57;;;;;;;21.95;11.15;;;2.70;99.90;;;1.13;100.00;100607.19;5035632;28;20116;-84
2022/12/07 01:49:43;;;;;;;20.10;10.60;;;2.70;99.90;;;1.10;100.00;100604.63;5033657;28;20041;-85
2022/12/07 01:52:35;;;;;;;18.30;10.40;;;2.70;99.90;;;1.08;100.00;100598.59;5035171;28;20042;-84
2022/12/07 01:55:07;;;;;;;18.65;9.93;;;2.70;99.90;;;1.06;100.00;100597.72;5032864;28;20061;-82
2022/12/07 01:57:37;;;;;;;22.48;10.50;;;2.70;99.90;;;1.04;100.00;100605.56;4996145;28;20058;-85
2022/12/07 02:00:05;;;;;;;19.33;10.40;;;2.70;99.90;;;1.05;100.00;100596.03;5015387;28;20025;-85
2022/12/07 02:02:43;;;;;;;18.08;9.93;;;2.70;99.90;;;1.03;100.00;100588.25;5002634;28;20391;-83
2022/12/07 02:05:09;;;;;;;18.20;10.40;;;2.70;99.90;;;0.98;100.00;100585.72;5035538;28;20029;-83
2022/12/07 02:07:37;;;;;;;21.02;11.32;;;2.60;99.90;;;0.98;100.00;100584.88;5001775;28;20033;-86
2022/12/07 02:10:20;;;;;;;19.77;11.02;;;2.60;99.90;;;0.90;100.00;100587.50;5015804;28;20068;-85
2022/12/07 02:12:51;;;;;;;24.00;11.75;;;2.50;99.90;;;0.84;100.00;100577.19;5016458;28;20029;-83
2022/12/07 02:15:20;;;;;;;23.63;11.07;;;2.50;99.90;;;0.81;100.00;100578.09;4996331;28;20037;-83
2022/12/07 02:18:31;;;;;;;24.13;12.07;;;2.50;99.90;;;0.76;100.00;100581.63;5035175;28;20096;-85
2022/12/07 02:21:06;;;;;;;22.08;11.63;;;2.40;99.90;;;0.70;100.00;100586.84;4947322;29;20042;-83
2022/12/07 02:23:59;;;;;;;24.58;11.82;;;2.40;99.90;;;0.64;100.00;100572.19;5008008;28;20038;-85
2022/12/07 02:26:49;;;;;;;19.08;11.15;;;2.30;99.90;;;0.59;100.00;100566.19;5017411;28;20057;-82
2022/12/07 02:29:29;;;;;;;23.05;11.95;;;2.30;99.90;;;0.60;100.00;100570.50;5038929;28;20029;-84
2022/12/07 02:32:08;;;;;;;23.27;12.00;;;2.30;99.90;;;0.60;100.00;100562.72;5035398;28;20524;-83
2022/12/07 02:35:04;;;;;;;21.33;11.70;;;2.30;99.90;;;0.56;100.00;100561.91;5035370;28;20037;-84
2022/12/07 02:38:15;;;;;;;22.80;11.40;;;2.20;99.90;;;0.55;100.00;100559.31;5035213;28;20033;-83
2022/12/07 02:40:57;;;;;;;22.08;10.27;;;2.20;99.90;;;0.53;100.00;100551.56;5029374;28;20367;-84
2022/12/07 02:43:49;;;;;;;18.40;10.43;;;2.20;99.90;;;0.54;100.00;100549.81;5035900;28;20040;-82
2022/12/07 02:46:26;;;;;;;20.15;10.55;;;2.20;99.90;;;0.53;100.00;100543.78;5005691;28;20056;-84
2022/12/07 02:48:54;;;;;;;17.25;10.88;;;2.20;99.90;;;0.55;100.00;100548.97;5031117;28;20056;-84
2022/12/07 02:51:22;;;;;;;17.85;10.65;;;2.20;99.90;;;0.56;100.00;100550.66;5018382;28;20402;-83
2022/12/07 02:53:55;;;;;;;23.52;11.45;;;2.20;99.90;;;0.58;100.00;100549.81;5033719;28;20032;-83
2022/12/07 02:56:41;;;;;;;19.73;10.70;;;2.20;99.90;;;0.57;100.00;100549.81;5018612;28;20117;-84
2022/12/07 02:59:53;;;;;;;23.08;11.45;;;2.20;99.90;;;0.55;100.00;100531.66;5036885;28;20103;-83
2022/12/07 03:02:24;;;;;;;19.85;10.00;;;2.20;99.90;;;0.52;100.00;100534.31;5032187;28;20041;-83
2022/12/07 03:05:26;;;;;;;22.98;11.00;;;2.20;99.90;;;0.54;100.00;100529.09;5032194;28;20426;-83
2022/12/07 03:08:10;;;;;;;23.10;11.65;;;2.20;99.90;;;0.52;100.00;100529.13;5026953;28;20052;-85
2022/12/07 03:11:04;;;;;;;24.77;11.93;;;2.20;99.90;;;0.50;100.00;100535.19;5031981;28;20037;-84
2022/12/07 03:13:39;;;;;;;27.98;12.85;;;2.20;99.90;;;0.48;100.00;100536.94;5035452;28;20041;-85
2022/12/07 03:16:36;;;;;;;34.33;12.95;;;2.20;99.90;;;0.44;100.00;100525.72;5038131;28;20029;-85
2022/12/07 03:19:17;;;;;;;39.08;14.25;;;2.20;99.90;;;0.45;100.00;100532.63;5030298;28;20029;-83
2022/12/07 03:21:57;;;;;;;36.92;14.95;;;2.20;99.90;;;0.45;100.00;100517.06;5018645;28;20075;-84
2022/12/07 03:24:33;;;;;;;35.38;14.50;;;2.20;99.90;;;0.46;100.00;100507.59;5031863;28;20036;-84
2022/12/07 03:27:45;;;;;;;38.75;14.82;;;2.10;99.90;;;0.42;100.00;100506.75;5003896;28;20440;-84
2022/12/07 03:30:18;;;;;;;52.30;16.70;;;2.10;99.90;;;0.41;100.00;100499.84;5019363;28;20064;-84
2022/12/07 03:33:13;;;;;;;47.78;16.88;;;2.10;99.90;;;0.42;100.00;100509.34;5033434;28;20029;-84
2022/12/07 03:36:00;;;;;;;51.17;16.58;;;2.10;99.90;;;0.42;100.00;100500.72;5013206;28;20120;-82
2022/12/07 03:38:42;;;;;;;56.72;17.38;;;2.10;99.90;;;0.42;100.00;100500.72;5028307;28;20024;-84
2022/12/07 03:41:27;;;;;;;53.22;16.98;;;2.10;99.90;;;0.40;100.00;100493.81;5022813;28;20018;-85
2022/12/07 03:43:55;;;;;;;51.78;17.38;;;2.10;99.90;;;0.41;100.00;100499.84;5033681;28;20033;-84
2022/12/07 03:46:33;;;;;;;54.58;17.05;;;2.10;99.90;;;0.41;100.00;100494.66;5017243;28;20048;-84
2022/12/07 03:49:23;;;;;;;55.70;17.35;;;2.10;99.90;;;0.39;100.00;100481.75;5013503;28;20032;-84
2022/12/07 03:52:08;;;;;;;52.85;16.98;;;2.10;99.90;;;0.39;100.00;100484.31;5031319;28;20046;-82
2022/12/07 03:55:16;;;;;;;49.42;17.13;;;2.10;99.90;;;0.39;100.00;100480.88;5035164;28;20037;-84
2022/12/07 03:57:45;;;;;;;54.25;16.52;;;2.00;99.90;;;0.39;100.00;100471.38;5031663;28;20029;-83
2022/12/07 04:00:16;;;;;;;60.72;16.95;;;2.10;99.90;;;0.39;100.00;100470.53;5031803;28;20036;-83
2022/12/07 04:02:43;;;;;;;49.88;16.38;;;2.10;99.90;;;0.42;100.00;100469.63;5030622;28;20061;-84
2022/12/07 04:05:11;;;;;;;57.25;17.42;;;2.10;99.90;;;0.43;100.00;100472.19;5030572;28;20068;-84
2022/12/07 04:07:37;;;;;;;49.25;16.25;;;2.10;99.90;;;0.45;100.00;100470.44;5015343;28;20584;-84
2022/12/07 04:10:07;;;;;;;51.17;16.58;;;0.90;99.90;;;0.46;100.00;100460.97;4991711;28;20125;-85
2022/12/07 04:12:33;;;;;;;54.35;16.83;;;2.10;99.90;;;0.46;100.00;100460.97;4997347;28;20025;-85
2022/12/07 04:14:58;;;;;;;55.53;16.98;;;2.10;99.90;;;0.45;100.00;100459.22;5000115;28;20091;-82
2022/12/07 04:17:24;;;;;;;53.33;16.33;;;2.10;99.90;;;0.46;100.00;100455.78;5015560;28;20116;-84
2022/12/07 04:19:50;;;;;;;61.53;17.38;;;2.10;99.90;;;0.48;100.00;100465.25;4992810;28;20042;-84
2022/12/07 04:22:16;;;;;;;44.63;15.57;;;2.10;99.90;;;0.50;100.00;100458.31;5015724;28;20026;-84
2022/12/07 04:24:42;;;;;;;60.10;17.20;;;2.10;99.90;;;0.51;100.00;100454.00;5031715;28;20025;-84
2022/12/07 04:27:15;;;;;;;56.75;16.90;;;2.20;99.90;;;0.52;100.00;100450.50;5030290;28;20104;-83
2022/12/07 04:29:41;;;;;;;59.83;15.90;;;2.20;99.90;;;0.54;100.00;100451.34;4997717;28;20095;-82
2022/12/07 04:32:07;;;;;;;55.75;16.05;;;2.20;99.90;;;0.56;100.00;100447.03;5013951;28;20543;-84
2022/12/07 04:34:32;;;;;;;49.42;16.88;;;2.20;99.90;;;0.59;100.00;100453.03;5030493;28;20030;-84
2022/12/07 04:36:58;;;;;;;73.78;17.80;;;2.20;99.90;;;0.62;100.00;100436.59;4995638;28;20025;-83
2022/12/07 04:39:31;;;;;;;68.25;17.85;;;2.20;99.90;;;0.63;100.00;100438.34;4996366;28;20114;-85
2022/12/07 04:41:58;;;;;;;65.65;17.20;;;2.20;99.90;;;0.63;100.00;100435.75;5004799;28;20038;-84
2022/12/07 04:44:26;;;;;;;63.45;17.65;;;2.20;99.90;;;0.63;100.00;100432.28;5014305;28;20041;-84
2022/12/07 04:46:57;;;;;;;64.57;17.75;;;2.20;99.90;;;0.62;100.00;100423.66;5019907;28;20069;-83
2022/12/07 04:49:24;;;;;;;63.20;18.98;;;2.20;99.90;;;0.64;100.00;100426.22;5029906;28;20042;-84
2022/12/07 04:51:51;;;;;;;63.13;18.67;;;2.20;99.90;;;0.65;100.00;100428.81;5013859;28;20025;-83
2022/12/07 04:54:17;;;;;;;67.05;19.15;;;2.20;99.90;;;0.62;100.00;100418.47;5012674;28;20029;-83
2022/12/07 04:56:46;;;;;;;52.00;16.67;;;2.30;99.90;;;0.63;100.00;100421.91;4995486;28;20035;-85
2022/12/07 04:59:16;;;;;;;71.10;18.58;;;2.20;99.90;;;0.61;100.00;100419.34;5029156;28;20017;-84
2022/12/07 05:01:42;;;;;;;69.88;18.55;;;2.20;99.90;;;0.58;100.00;100415.06;5028947;28;20033;-83
2022/12/07 05:04:08;;;;;;;66.05;18.25;;;2.20;99.90;;;0.58;100.00;100417.66;5028149;28;20038;-82
2022/12/07 05:06:34;;;;;;;72.50;19.73;;;2.20;99.90;;;0.52;100.00;100406.47;5029155;28;20026;-82
2022/12/07 05:09:09;;;;;;;71.90;18.30;;;2.20;99.90;;;0.49;100.00;100399.59;5013123;28;20708;-83
2022/12/07 05:11:38;;;;;;;73.35;18.80;;;2.10;99.90;;;0.46;100.00;100394.47;5012991;28;20030;-84
2022/12/07 05:14:12;;;;;;;80.53;19.00;;;2.10;99.90;;;0.41;100.00;100383.25;5013017;28;20040;-83
2022/12/07 05:16:39;;;;;;;82.18;18.88;;;2.10;99.90;;;0.35;100.00;100380.78;5033180;28;20513;-84
2022/12/07 05:19:06;;;;;;;80.32;17.58;;;2.10;99.90;;;0.36;100.00;100374.69;5015275;28;20030;-84
2022/12/07 05:21:32;;;;;;;80.25;18.27;;;2.10;99.90;;;0.32;100.00;100365.25;5017439;28;20021;-82
2022/12/07 05:24:00;;;;;;;77.28;17.77;;;2.10;99.90;;;0.29;100.00;100366.13;5009481;28;20033;-82
2022/12/07 05:26:27;;;;;;;76.55;17.02;;;2.00;99.90;;;0.30;100.00;100365.28;4993661;28;20041;-84
2022/12/07 05:28:55;;;;;;;75.63;17.85;;;2.00;99.90;;;0.39;100.00;100370.34;5033027;28;20029;-84
2022/12/07 05:31:23;;;;;;;81.45;18.80;;;2.00;99.90;;;0.39;100.00;100372.09;5030860;28;20037;-84
2022/12/07 05:33:49;;;;;;;65.60;18.05;;;2.00;99.90;;;0.43;100.00;100378.09;5016099;28;20044;-82
2022/12/07 05:36:16;;;;;;;80.30;19.70;;;2.10;99.90;;;0.45;100.00;100374.59;5016729;28;20014;-83
2022/12/07 05:38:41;;;;;;;94.93;20.80;;;2.10;99.90;;;0.47;100.00;100374.59;5032563;28;20033;-83
2022/12/07 05:42:11;;;;;;;95.32;18.85;;;2.10;99.90;;;0.47;100.00;100375.44;4995961;28;20491;-82
2022/12/07 05:44:00;;;;;;;86.38;19.38;;;2.10;99.90;;;0.45;100.00;100377.19;5017687;28;20797;-83
2022/12/07 05:46:26;;;;;;;91.95;19.15;;;2.10;99.90;;;0.50;100.00;100379.75;5031805;28;21376;-82
2022/12/07 05:48:52;;;;;;;71.13;18.13;;;2.10;99.90;;;0.50;100.00;100380.59;5016806;28;20120;-83
2022/12/07 05:51:18;;;;;;;56.75;16.08;;;2.10;99.90;;;0.52;100.00;100372.78;5016480;28;20125;-82
2022/12/07 05:53:45;;;;;;;73.45;17.15;;;2.10;99.90;;;0.52;100.00;100370.19;5032713;28;20056;-84
2022/12/07 05:56:11;;;;;;;75.93;17.42;;;2.10;99.90;;;0.52;100.00;100378.84;5032209;28;20029;-83
2022/12/07 06:01:21;;;;;;;67.03;17.80;;;2.20;99.90;;;0.57;100.00;100371.88;5034610;28;20098;-83
2022/12/07 06:03:47;;;;;;;84.32;19.10;;;2.20;99.90;;;0.59;100.00;100379.63;5015680;28;20045;-84
2022/12/07 06:06:15;;;;;;;97.68;19.80;;;2.20;99.90;;;0.57;100.00;100377.06;4999053;28;20448;-84
2022/12/07 06:08:41;;;;;;;89.57;19.45;;;2.20;99.90;;;0.58;100.00;100365.84;5031119;28;20029;-82
2022/12/07 06:13:53;;;;;;;107.53;20.88;;;2.20;99.90;;;0.60;100.00;100369.28;5017885;28;20040;-84
2022/12/07 06:16:19;;;;;;;110.53;20.63;;;2.20;99.90;;;0.60;100.00;100374.44;5032007;28;20478;-84
2022/12/07 06:18:45;;;;;;;107.72;20.50;;;2.20;99.90;;;0.59;100.00;100370.13;5016097;28;20033;-84
2022/12/07 06:21:11;;;;;;;139.13;21.52;;;2.20;99.90;;;0.59;100.00;100359.75;5023807;28;20022;-83
2022/12/07 06:23:36;;;;;;;139.13;22.13;;;2.20;99.90;;;0.60;100.00;100365.78;5010281;28;20600;-84
2022/12/07 06:26:02;;;;;;;115.95;20.38;;;2.20;99.90;;;0.59;100.00;100358.91;5031173;28;20601;-84
2022/12/07 06:28:36;;;;;;;146.45;21.85;;;2.20;99.90;;;0.61;100.00;100358.00;5029994;28;20033;-83
2022/12/07 06:31:02;;;;;;;172.57;23.17;;;2.20;99.90;;;0.61;100.00;100360.59;4991614;28;20022;-83
2022/12/07 06:33:29;;;;;;;163.70;22.65;;;2.30;99.90;;;0.60;100.00;100360.63;5030358;28;20669;-83
2022/12/07 06:35:57;;;;;;;174.82;23.30;;;2.20;99.90;;;0.58;100.00;100358.06;4994318;28;20394;-84
2022/12/07 06:38:25;;;;;;;212.45;24.80;;;2.20;99.90;;;0.60;100.00;100350.25;5031142;28;20029;-85
2022/12/07 06:40:51;;;;;;;177.05;23.77;;;2.20;99.90;;;0.60;100.00;100353.72;5024135;28;20497;-82
2022/12/07 06:43:17;;;;;;;177.18;22.85;;;2.20;99.90;;;0.60;100.00;100348.53;4997048;28;20041;-84
2022/12/07 06:45:43;;;;;;;204.55;23.48;;;2.20;99.90;;;0.61;100.00;100347.66;5013207;28;20730;-83
2022/12/07 06:48:09;;;;;;;207.77;24.40;;;2.20;99.90;;;0.61;100.00;100351.97;5015132;28;20041;-84
2022/12/07 06:50:34;;;;;;;140.70;22.10;;;2.20;99.90;;;0.60;100.00;100345.94;5022212;28;20034;-84
2022/12/07 06:53:00;;;;;;;188.15;23.80;;;2.20;99.90;;;0.59;100.00;100349.41;5030407;28;20442;-83
2022/12/07 06:55:29;;;;;;;188.85;25.00;;;2.20;99.90;;;0.61;100.00;100352.84;5014733;28;20030;-84
2022/12/07 06:57:55;;;;;;;228.35;24.33;;;;;;;0.61;100.00;100351.97;5014679;28;20048;-83
2022/12/07 07:00:22;;;;;;;298.65;26.08;;;2.20;99.90;;;0.60;100.00;100345.94;5016395;28;20060;-83
2022/12/07 07:02:48;;;;;;;104.63;20.33;;;2.20;99.90;;;0.55;100.00;100342.53;5031303;28;20042;-82
2022/12/07 07:05:13;;;;;;;268.73;24.33;;;2.20;99.90;;;0.51;100.00;100348.63;5017782;28;20469;-83
2022/12/07 07:07:42;;;;;;;145.43;22.05;;;2.10;99.90;;;0.45;100.00;100353.88;4992336;28;20072;-84
2022/12/07 07:10:10;;;;;;;195.52;22.58;;;2.10;99.90;;;0.37;100.00;100353.97;5031000;28;20120;-83
2022/12/07 07:12:36;;;;;;;221.27;21.15;;;2.10;99.90;;;0.34;100.00;100353.97;5013078;28;20060;-85
2022/12/07 07:15:02;;;;;;;218.88;19.70;;;2.00;99.90;;;0.13;100.00;100347.31;5017705;28;20029;-83
2022/12/07 07:17:28;;;;;;;312.48;21.67;;;1.90;99.90;;;0.13;100.00;100349.91;4991285;28;20367;-83
2022/12/07 07:19:53;;;;;;;218.25;18.10;;;1.90;99.90;;;0.13;100.00;100351.63;5015738;28;20569;-85
2022/12/07 07:22:19;;;;;;;245.23;21.48;;;1.80;99.90;;;0.15;100.00;100348.16;5048861;23;20176;-78
2022/12/07 07:24:50;;;;;;;250.18;20.08;;;1.80;99.90;;;0.12;100.00;100353.34;5026056;28;20112;-80
2022/12/07 07:27:16;;;;;;;272.38;20.40;;;1.80;99.90;;;0.14;100.00;100346.44;5023169;28;20510;-81
2022/12/07 07:29:41;;;;;;;306.70;19.52;;;1.90;99.90;;;0.15;100.00;100342.97;5035455;28;20118;-78
2022/12/07 07:32:07;;;;;;;307.60;20.13;;;1.80;99.90;;;0.18;100.00;100345.53;5021281;28;20506;-78
2022/12/07 07:34:33;;;;;;;447.38;19.83;;;1.80;99.90;;;0.13;100.00;100344.72;5036906;28;20093;-81
2022/12/07 07:37:04;;;;;;;303.45;19.17;;;1.80;99.90;;;0.15;100.00;100350.75;5013512;28;20039;-81
2022/12/07 07:39:30;;;;;;;254.68;16.50;;;1.90;99.90;;;0.17;100.00;100345.53;5024524;28;20112;-79
2022/12/07 07:41:56;;;;;;;364.30;20.98;;;1.90;99.90;;;0.18;100.00;100342.94;5020545;28;20118;-80
2022/12/07 07:44:22;;;;;;;463.02;23.88;;;1.90;99.90;;;0.22;100.00;100355.84;5021265;28;20116;-80
2022/12/07 07:46:47;;;;;;;408.65;23.63;;;1.90;99.90;;;0.28;100.00;100348.00;5024308;28;20064;-81
2022/12/07 07:49:13;;;;;;;384.08;23.83;;;1.90;99.90;;;0.37;100.00;100348.78;5025103;28;20131;-80
2022/12/07 07:51:39;;;;;;;211.32;19.20;;;2.00;99.90;;;0.40;100.00;100350.47;5002960;28;20072;-80
2022/12/07 07:54:10;;;;;;;317.98;21.85;;;2.00;99.90;;;0.42;100.00;100350.47;5003414;28;20117;-80
2022/12/07 07:56:36;;;;;;;221.27;20.83;;;2.00;99.90;;;0.52;100.00;100352.94;5024608;28;20029;-84
2022/12/07 07:59:02;;;;;;;150.00;18.95;;;2.10;99.90;;;0.53;100.00;100356.38;5018520;28;20068;-80
2022/12/07 08:01:28;;;;;;;161.73;19.45;;;2.10;99.90;;;0.59;100.00;100359.75;5024662;28;20025;-81
2022/12/07 08:03:54;;;;;;;322.05;21.60;;;2.20;99.90;;;0.66;100.00;100355.38;5014767;28;20121;-81
2022/12/07 08:06:22;;;;;;;292.75;22.30;;;2.20;99.90;;;0.68;100.00;100353.63;5022733;28;20033;-81
2022/12/07 08:08:50;;;;;;;191.88;21.58;;;2.20;99.90;;;0.70;100.00;100358.78;5021075;28;20068;-80
2022/12/07 08:11:16;;;;;;;254.60;21.27;;;2.20;99.90;;;0.66;100.00;100351.94;5022879;28;20029;-81
2022/12/07 08:13:44;;;;;;;89.88;18.55;;;2.20;99.90;;;0.66;100.00;100354.50;5021798;28;20029;-80
2022/12/07 08:16:11;;;;;;;153.85;18.52;;;2.30;99.90;;;0.65;100.00;100353.66;5008681;28;20037;-80
2022/12/07 08:18:40;;;;;;;141.60;19.77;;;2.30;99.90;;;0.69;100.00;100347.56;5022610;28;20045;-81
2022/12/07 08:21:10;;;;;;;163.95;19.88;;;2.30;99.90;;;0.69;100.00;100352.75;5022105;28;20017;-81
2022/12/07 08:23:36;;;;;;;125.20;21.20;;;2.30;99.90;;;0.72;100.00;100347.53;5022502;28;20034;-81
2022/12/07 08:26:14;;;;;;;152.68;19.90;;;2.30;99.90;;;0.74;100.00;100355.28;5012879;28;20022;-80
2022/12/07 08:28:40;;;;;;;116.45;18.02;;;2.30;99.90;;;0.68;100.00;100350.19;5018188;28;20048;-80
2022/12/07 08:31:18;;;;;;;173.52;21.42;;;2.30;99.90;;;0.71;100.00;100347.53;5019686;28;20025;-81
2022/12/07 08:33:46;;;;;;;131.88;20.08;;;2.30;99.90;;;0.77;100.00;100352.66;5020298;28;20164;-81
2022/12/07 08:36:18;;;;;;;220.30;20.20;;;2.30;99.90;;;0.77;100.00;100352.66;5022019;28;20493;-80
2022/12/07 08:38:45;;;;;;;196.88;18.30;;;2.30;99.90;;;0.71;100.00;100353.56;5019964;28;20076;-80
2022/12/07 08:41:11;;;;;;;139.73;19.25;;;2.30;99.90;;;0.69;100.00;100342.38;5021335;28;20037;-79
2022/12/07 08:43:37;;;;;;;165.75;22.48;;;2.30;99.90;;;0.79;100.00;100351.75;5014509;28;20033;-80
2022/12/07 08:46:15;;;;;;;136.48;21.58;;;2.40;99.90;;;0.89;100.00;100352.50;5006306;28;20021;-80
2022/12/07 08:48:55;;;;;;;117.68;20.75;;;2.40;99.90;;;0.96;100.00;100358.47;5021450;28;20030;-80
2022/12/07 08:51:22;;;;;;;97.45;20.02;;;2.50;99.90;;;1.01;100.00;100344.53;5014834;28;20033;-80
2022/12/07 08:53:53;;;;;;;95.18;19.38;;;2.50;99.90;;;1.10;100.00;100345.28;5034984;28;20379;-80
2022/12/07 08:56:26;;;;;;;78.13;20.08;;;2.60;99.90;;;1.18;100.00;100359.88;5019437;28;20072;-79
2022/12/07 08:58:57;;;;;;;80.50;17.92;;;2.70;99.90;;;1.29;100.00;100351.94;5019823;28;20045;-80
2022/12/07 09:01:26;;;;;;;71.18;19.25;;;2.80;99.90;;;1.41;100.00;100356.97;5018135;28;20044;-81
2022/12/07 09:04:00;;;;;;;75.95;18.67;;;2.80;99.90;;;1.50;100.00;100370.69;5016735;28;20463;-81
2022/12/07 09:06:33;;;;;;;82.20;20.17;;;2.90;99.90;;;1.60;100.00;100356.69;5016544;28;20516;-80
2022/12/07 09:09:08;;;;;;;61.70;18.27;;;3.00;99.90;;;1.70;100.00;100358.22;5018984;28;20064;-80
2022/12/07 09:11:34;;;;;;;54.53;16.55;;;3.10;99.90;;;1.73;100.00;100366.00;5017517;28;20038;-80
2022/12/07 09:14:02;;;;;;;69.32;19.83;;;3.20;99.90;;;1.88;100.00;100369.19;5021203;28;20512;-80
2022/12/07 09:16:33;;;;;;;76.28;20.13;;;3.20;99.90;;;1.91;100.00;100369.16;5020447;28;20037;-81
2022/12/07 09:18:59;;;;;;;79.20;21.08;;;3.30;99.90;;;1.96;100.00;100360.41;5002174;28;20433;-80
2022/12/07 09:21:25;;;;;;;75.30;20.88;;;3.40;99.90;;;2.09;100.00;100353.25;5020855;28;20076;-80
2022/12/07 09:23:54;;;;;;;80.50;21.75;;;3.40;99.90;;;2.21;100.00;100359.97;5002165;28;20502;-80
2022/12/07 09:26:30;;;;;;;65.68;21.63;;;3.50;99.90;;;2.31;100.00;100365.84;5018052;28;20081;-80
2022/12/07 09:28:56;;;;;;;54.80;19.90;;;3.60;99.90;;;2.36;100.00;100366.66;5016520;28;20041;-81
2022/12/07 09:31:21;;;;;;;50.42;17.35;;;3.70;99.90;;;2.41;100.00;100362.22;5003077;28;20096;-79
2022/12/07 09:34:08;;;;;;;43.50;16.23;;;3.70;99.90;;;2.37;100.00;100366.59;5022189;28;20116;-80
2022/12/07 09:36:37;;;;;;;39.13;15.95;;;3.60;99.90;;;2.23;100.00;100358.22;5017306;28;20105;-80
2022/12/07 09:39:04;;;;;;;36.40;14.35;;;3.60;99.90;;;2.28;100.00;100358.13;5021440;28;20029;-79
2022/12/07 09:41:32;;;;;;;29.30;13.00;;;3.60;99.90;;;2.18;100.00;100354.81;5018893;28;20333;-79
2022/12/07 09:44:18;;;;;;;27.92;12.20;;;3.60;99.90;;;2.11;100.00;100354.09;5019351;28;20048;-79
2022/12/07 09:46:47;;;;;;;;;;;3.60;99.90;;;2.04;100.00;100347.28;5006038;28;20060;-82
2022/12/07 09:49:33;;;;;;;15.98;7.38;;;3.50;99.90;;;1.83;100.00;100348.50;5019502;28;19996;-81
2022/12/07 09:52:30;;;;;;;20.40;9.70;;;3.40;99.90;;;1.78;100.00;100335.59;5034568;28;20394;-81
2022/12/07 09:54:58;;;;;;;19.67;8.68;;;3.30;99.90;;;1.88;100.00;100338.03;5015168;28;20042;-82
2022/12/07 09:57:36;;;;;;;11.85;7.05;;;3.50;99.90;;;2.29;100.00;100341.63;5018808;28;20057;-82
2022/12/07 10:00:15;;;;;;;17.75;8.23;;;3.70;99.90;;;2.57;100.00;100335.03;5021156;28;20060;-81
2022/12/07 10:03:03;;;;;;;23.00;9.60;;;3.90;99.90;;;2.78;100.00;100338.94;5005795;28;20048;-83
2022/12/07 10:05:59;;;;;;;20.98;10.32;;;4.00;99.90;;;2.71;100.00;100326.94;5019521;28;20042;-82
2022/12/07 10:08:26;;;;;;;23.48;9.52;;;4.10;99.90;;;2.81;100.00;100320.69;5022850;28;20157;-82
2022/12/07 10:11:00;;;;;;;23.20;9.88;;;4.20;99.90;;;2.82;100.00;100331.94;5007218;28;20509;-81
2022/12/07 10:13:53;;;;;;;22.27;9.82;;;4.10;99.90;;;2.67;100.00;100333.94;5006605;28;20043;-82
2022/12/07 10:16:28;;;;;;;32.92;13.20;;;4.10;99.90;;;2.61;100.00;100333.22;5020538;28;20056;-81
2022/12/07 10:19:20;;;;;;;23.38;11.93;;;4.10;99.90;;;2.63;100.00;100331.44;5028512;28;20105;-82
2022/12/07 10:22:17;;;;;;;24.25;12.52;;;4.00;99.90;;;2.52;100.00;100321.25;5001046;28;20498;-82
2022/12/07 10:24:51;;;;;;;29.10;13.93;;;4.00;99.90;;;2.53;100.00;100317.78;5020188;28;20107;-81
2022/12/07 10:27:56;;;;;;;28.85;13.23;;;4.00;99.90;;;2.57;100.00;100318.56;5022828;28;20148;-81
2022/12/07 10:30:28;;;;;;;33.00;14.02;;;4.00;99.90;;;2.57;100.00;100316.84;5006496;28;20426;-81
2022/12/07 10:32:59;;;;;;;31.85;14.60;;;4.00;99.90;;;2.59;100.00;100322.00;5021301;28;20098;-81
2022/12/07 10:35:45;;;;;;;32.65;15.68;;;4.00;99.90;;;2.51;100.00;100321.31;5023047;28;20234;-81